Paynes Point, Illinois
Current Conditions -  °F | °C
As of 6:35 AM on Thursday 29 Jan 2015 (Local Time) from KRPJ Reporting Station
Overcast Overcast  
Wind Chill: 22°   Ceiling: 1700
Heat Index: 32°   Visibility: 7mi
Dew Point: 29°   Wind: 14mph
Humidity: 90%   Direction: 320°NW
Pressure: 29.79"   Gusts: 20mph
Location:  41.9937°N, 89.1961°W
Report Text: KRPJ 291235Z AUTO 32012G17KT 7SM OVC017 00/M01 A2979 RMK AO2 T00001015
Loading
Personal Weather Stations






























Interactive Weather Map New forecast layout! Learn more

10-Day Weather Forecast

Advertisements
Track Severe Weather on mobile